Terminal Aerodrome Forecast
Issued by NWS St Louis, MO

Home | Current Version | Previous Version | Text Only | Print | Product List | Glossary On
Versions: 1 2 3 4 5 6 7 8 9 10 11 12 13 14 15 16 17 18 19 20 21 22 23 24 25 26 27 28 29 30
000
FTUS43 KLSX 310800 AAA
TAFSTL
TAF AMD
KSTL 310858Z 3109/0112 18005KT P6SM BKN150
     FM311500 21007KT P6SM OVC060
     FM312100 17006KT 6SM -RA SCT020 OVC040
     FM010900 16007KT 3SM -RASN OVC020=

USA.gov is the U.S. government's official web portal to all federal, state and local government web resources and services.